Time;durP1;ratioP1;P1;durP2;ratioP2;P2;SDS_P1;SDS_P2;PMS_P1;PMS_P2;Temp;Humidity;BMP_temperature;BMP_pressure;BME280_temperature;BME280_humidity;BME280_pressure;Samples;Min_cycle;Max_cycle;Signal;HPM_P1;HPM_P2
2023/09/29 00:01:08;;;;;;;10.20;9.10;;;;;;;;;;112558;209;42939;-37
2023/09/29 00:03:46;;;;;;;10.00;8.90;;;;;;;;;;112591;210;42137;-37
2023/09/29 00:06:23;;;;;;;9.80;8.70;;;;;;;;;;112557;210;38616;-37
2023/09/29 00:08:59;;;;;;;9.80;8.80;;;;;;;;;;112614;210;39739;-37
2023/09/29 00:11:38;;;;;;;10.20;9.10;;;;;;;;;;112582;209;43086;-37
2023/09/29 00:14:14;;;;;;;9.60;8.60;;;;;;;;;;112611;210;42172;-37
2023/09/29 00:16:49;;;;;;;9.90;8.60;;;;;;;;;;112619;210;38682;-37
2023/09/29 00:19:23;;;;;;;9.90;8.70;;;;;;;;;;112623;210;39771;-37
2023/09/29 00:22:00;;;;;;;10.10;8.90;;;;;;;;;;112578;209;43069;-37
2023/09/29 00:24:36;;;;;;;9.50;8.50;;;;;;;;;;112611;210;42116;-37
2023/09/29 00:27:12;;;;;;;10.10;9.10;;;;;;;;;;112637;210;38712;-37
2023/09/29 00:29:46;;;;;;;10.50;9.40;;;;;;;;;;112628;210;39783;-37
2023/09/29 00:32:20;;;;;;;10.40;9.30;;;;;;;;;;112564;209;43079;-37
2023/09/29 00:34:57;;;;;;;10.10;9.00;;;;;;;;;;112580;210;42043;-38
2023/09/29 00:37:36;;;;;;;10.30;9.00;;;;;;;;;;112621;210;38523;-37
2023/09/29 00:40:21;;;;;;;10.20;9.10;;;;;;;;;;112634;210;39800;-37
2023/09/29 00:42:57;;;;;;;10.20;9.20;;;;;;;;;;112593;209;43141;-37
2023/09/29 00:45:33;;;;;;;10.10;9.00;;;;;;;;;;112629;210;41812;-37
2023/09/29 00:48:10;;;;;;;10.20;9.10;;;;;;;;;;112659;210;39201;-38
2023/09/29 00:50:47;;;;;;;10.20;9.00;;;;;;;;;;112657;210;40043;-37
2023/09/29 00:53:23;;;;;;;9.60;8.60;;;;;;;;;;112611;209;50079;-37
2023/09/29 00:56:00;;;;;;;9.80;8.60;;;;;;;;;;112635;209;42202;-37
2023/09/29 00:58:37;;;;;;;10.20;8.90;;;;;;;;;;112659;210;38795;-37
2023/09/29 01:01:13;;;;;;;10.80;9.70;;;;;;;;;;112597;209;39749;-37
2023/09/29 01:03:48;;;;;;;10.10;8.90;;;;;;;;;;112637;210;49403;-37
2023/09/29 01:06:24;;;;;;;9.90;8.90;;;;;;;;;;112664;210;42135;-37
2023/09/29 01:09:00;;;;;;;10.00;8.90;;;;;;;;;;112603;210;38866;-38
2023/09/29 01:11:44;;;;;;;10.60;9.20;;;;;;;;;;112450;209;175494;-37
2023/09/29 01:14:21;;;;;;;10.50;9.30;;;;;;;;;;112630;210;49151;-37
2023/09/29 01:16:54;;;;;;;9.70;8.70;;;;;;;;;;112621;210;42327;-37
2023/09/29 01:19:31;;;;;;;9.90;8.90;;;;;;;;;;112586;210;38984;-37
2023/09/29 01:22:06;;;;;;;9.80;8.80;;;;;;;;;;112508;209;40716;-37
2023/09/29 01:24:40;;;;;;;10.10;9.10;;;;;;;;;;112565;210;50415;-37
2023/09/29 01:27:15;;;;;;;10.30;9.10;;;;;;;;;;112573;210;42159;-37
2023/09/29 01:29:49;;;;;;;10.00;9.00;;;;;;;;;;111873;210;892820;-37
2023/09/29 01:32:24;;;;;;;10.20;9.20;;;;;;;;;;112550;209;39268;-37
2023/09/29 01:35:04;;;;;;;10.10;8.90;;;;;;;;;;112457;209;175505;-37
2023/09/29 01:37:44;;;;;;;9.70;8.70;;;;;;;;;;112601;210;42173;-37
2023/09/29 01:40:22;;;;;;;10.10;9.10;;;;;;;;;;112603;210;38772;-38
2023/09/29 01:42:58;;;;;;;10.40;9.30;;;;;;;;;;112574;209;39268;-37
2023/09/29 01:45:38;;;;;;;9.90;8.90;;;;;;;;;;112619;210;43242;-37
2023/09/29 01:48:12;;;;;;;9.90;8.90;;;;;;;;;;112579;209;41744;-37
2023/09/29 01:50:47;;;;;;;10.10;9.10;;;;;;;;;;112668;210;38829;-37
2023/09/29 01:53:21;;;;;;;10.10;9.10;;;;;;;;;;112574;209;39726;-38
2023/09/29 01:55:57;;;;;;;10.00;9.00;;;;;;;;;;112614;209;42893;-37
2023/09/29 01:58:31;;;;;;;10.30;9.30;;;;;;;;;;112627;210;42186;-37
2023/09/29 02:01:08;;;;;;;9.90;8.90;;;;;;;;;;112630;210;38865;-38
2023/09/29 02:03:44;;;;;;;10.40;9.40;;;;;;;;;;112592;209;39937;-37
2023/09/29 02:06:21;;;;;;;10.10;9.10;;;;;;;;;;112618;209;42773;-37
2023/09/29 02:08:56;;;;;;;10.20;9.20;;;;;;;;;;111942;209;892098;-37
2023/09/29 02:11:30;;;;;;;10.00;9.00;;;;;;;;;;112618;210;38768;-37
2023/09/29 02:14:06;;;;;;;9.80;8.80;;;;;;;;;;112473;209;175524;-37
2023/09/29 02:16:41;;;;;;;9.80;8.60;;;;;;;;;;112599;209;44371;-38
2023/09/29 02:19:17;;;;;;;10.20;9.20;;;;;;;;;;112652;210;42063;-37
2023/09/29 02:21:52;;;;;;;10.70;9.60;;;;;;;;;;112660;210;38712;-37
2023/09/29 02:24:27;;;;;;;9.80;8.90;;;;;;;;;;112604;209;40814;-37
2023/09/29 02:27:01;;;;;;;10.50;9.50;;;;;;;;;;112480;209;175495;-37
2023/09/29 02:29:35;;;;;;;10.00;9.00;;;;;;;;;;112587;210;42507;-37
2023/09/29 02:32:09;;;;;;;9.70;8.70;;;;;;;;;;112415;210;40210;-37
2023/09/29 02:34:45;;;;;;;10.10;9.10;;;;;;;;;;112576;209;39740;-38
2023/09/29 02:37:22;;;;;;;10.20;9.10;;;;;;;;;;112599;210;42873;-37
2023/09/29 02:39:58;;;;;;;9.80;8.80;;;;;;;;;;112401;210;43733;-37
2023/09/29 02:42:32;;;;;;;9.70;8.70;;;;;;;;;;112603;210;38705;-37
2023/09/29 02:45:09;;;;;;;10.10;9.10;;;;;;;;;;112338;209;322426;-37
2023/09/29 02:47:46;;;;;;;10.30;9.30;;;;;;;;;;112468;210;42889;-37
2023/09/29 02:50:24;;;;;;;10.00;9.10;;;;;;;;;;112638;210;43466;-37
2023/09/29 02:52:59;;;;;;;10.30;9.20;;;;;;;;;;112669;209;38597;-37
2023/09/29 02:55:33;;;;;;;10.30;9.30;;;;;;;;;;112610;209;39665;-37
2023/09/29 02:58:08;;;;;;;10.20;9.00;;;;;;;;;;112605;209;43159;-37
2023/09/29 03:00:43;;;;;;;10.00;9.00;;;;;;;;;;112629;209;42589;-37
2023/09/29 03:03:20;;;;;;;10.00;8.80;;;;;;;;;;112619;209;38956;-37
2023/09/29 03:05:58;;;;;;;10.00;9.00;;;;;;;;;;112622;209;40794;-37
2023/09/29 03:08:34;;;;;;;10.80;9.30;;;;;;;;;;112641;209;44050;-37
2023/09/29 03:11:12;;;;;;;9.90;8.90;;;;;;;;;;112642;210;42615;-37
2023/09/29 03:13:49;;;;;;;9.70;8.80;;;;;;;;;;112655;210;38729;-37
2023/09/29 03:16:24;;;;;;;9.80;8.80;;;;;;;;;;112529;209;41292;-37
2023/09/29 03:19:00;;;;;;;9.50;8.50;;;;;;;;;;112586;210;42960;-37
2023/09/29 03:21:37;;;;;;;9.70;8.80;;;;;;;;;;112578;210;42032;-37
2023/09/29 03:24:12;;;;;;;9.50;8.60;;;;;;;;;;112589;210;38915;-37
2023/09/29 03:26:49;;;;;;;9.60;8.60;;;;;;;;;;112547;209;39301;-37
2023/09/29 03:29:23;;;;;;;9.40;8.50;;;;;;;;;;112436;210;42967;-37
2023/09/29 03:31:56;;;;;;;9.70;8.70;;;;;;;;;;112591;210;42355;-37
2023/09/29 03:34:30;;;;;;;10.60;9.50;;;;;;;;;;112613;210;38909;-37
2023/09/29 03:37:03;;;;;;;10.60;9.40;;;;;;;;;;112541;209;39601;-37
2023/09/29 03:39:38;;;;;;;10.90;9.80;;;;;;;;;;112571;210;42754;-37
2023/09/29 03:42:19;;;;;;;10.90;9.50;;;;;;;;;;112627;210;42181;-37
2023/09/29 03:44:54;;;;;;;11.10;10.00;;;;;;;;;;112564;210;39813;-37
2023/09/29 03:47:28;;;;;;;12.00;9.90;;;;;;;;;;112550;209;45198;-37
2023/09/29 03:50:04;;;;;;;12.10;10.40;;;;;;;;;;112597;210;43091;-37
2023/09/29 03:52:39;;;;;;;11.30;9.90;;;;;;;;;;112607;210;42125;-37
2023/09/29 03:55:17;;;;;;;11.70;10.50;;;;;;;;;;112642;210;39977;-37
2023/09/29 03:57:51;;;;;;;12.00;10.80;;;;;;;;;;112535;209;45498;-37
2023/09/29 04:00:26;;;;;;;11.70;10.50;;;;;;;;;;112653;210;44064;-37
2023/09/29 04:02:59;;;;;;;12.40;11.10;;;;;;;;;;112584;210;42139;-37
2023/09/29 04:05:34;;;;;;;12.40;11.10;;;;;;;;;;111868;210;891414;-37
2023/09/29 04:08:09;;;;;;;12.10;10.80;;;;;;;;;;112514;210;45807;-37
2023/09/29 04:10:46;;;;;;;12.40;11.20;;;;;;;;;;112562;210;42790;-37
2023/09/29 04:13:20;;;;;;;12.60;11.40;;;;;;;;;;112584;210;42412;-37
2023/09/29 04:15:54;;;;;;;12.40;11.20;;;;;;;;;;112616;210;39203;-37
2023/09/29 04:18:29;;;;;;;12.40;11.10;;;;;;;;;;112546;210;45307;-37
2023/09/29 04:21:10;;;;;;;12.40;11.20;;;;;;;;;;112579;210;44435;-39
2023/09/29 04:23:44;;;;;;;12.90;11.60;;;;;;;;;;112577;210;41974;-37
2023/09/29 04:26:22;;;;;;;12.70;11.40;;;;;;;;;;112551;210;38742;-37
2023/09/29 04:28:57;;;;;;;13.20;11.90;;;;;;;;;;112547;210;45625;-37
2023/09/29 04:31:31;;;;;;;12.30;11.10;;;;;;;;;;112562;210;42751;-37
2023/09/29 04:34:07;;;;;;;13.40;12.00;;;;;;;;;;112584;210;42671;-37
2023/09/29 04:36:42;;;;;;;13.20;11.90;;;;;;;;;;112574;209;38434;-36
2023/09/29 04:39:18;;;;;;;13.30;12.00;;;;;;;;;;112636;210;45663;-37
2023/09/29 04:41:52;;;;;;;13.00;11.70;;;;;;;;;;112599;210;42873;-37
2023/09/29 04:44:29;;;;;;;13.00;11.70;;;;;;;;;;111945;210;892641;-37
2023/09/29 04:47:04;;;;;;;13.80;12.40;;;;;;;;;;112355;209;38740;-37
2023/09/29 04:49:41;;;;;;;13.20;11.90;;;;;;;;;;112640;210;40867;-37
2023/09/29 04:52:14;;;;;;;13.70;12.20;;;;;;;;;;112623;210;44067;-37
2023/09/29 04:54:52;;;;;;;13.20;11.90;;;;;;;;;;112465;210;195381;-37
2023/09/29 04:57:27;;;;;;;13.60;12.30;;;;;;;;;;112544;209;38733;-37
2023/09/29 05:00:00;;;;;;;13.20;11.90;;;;;;;;;;112581;210;40638;-37
2023/09/29 05:02:35;;;;;;;13.40;12.10;;;;;;;;;;112638;210;43974;-37
2023/09/29 05:05:12;;;;;;;13.10;11.80;;;;;;;;;;112567;210;43511;-37
2023/09/29 05:07:46;;;;;;;13.50;12.10;;;;;;;;;;112657;209;38624;-37
2023/09/29 05:10:20;;;;;;;13.60;12.20;;;;;;;;;;112611;210;40638;-37
2023/09/29 05:12:54;;;;;;;13.00;11.70;;;;;;;;;;112618;210;43038;-37
2023/09/29 05:15:29;;;;;;;13.10;11.70;;;;;;;;;;112599;210;42107;-37
2023/09/29 05:18:08;;;;;;;13.80;12.50;;;;;;;;;;112541;209;38706;-37
2023/09/29 05:20:45;;;;;;;13.80;12.30;;;;;;;;;;112610;210;40726;-37
2023/09/29 05:23:18;;;;;;;13.30;12.00;;;;;;;;;;112564;209;43152;-37
2023/09/29 05:25:52;;;;;;;13.40;12.10;;;;;;;;;;112614;210;42196;-37
2023/09/29 05:28:26;;;;;;;13.70;12.30;;;;;;;;;;112548;209;38845;-36
2023/09/29 05:31:01;;;;;;;13.30;12.00;;;;;;;;;;112550;210;39712;-37
2023/09/29 05:33:35;;;;;;;13.70;12.30;;;;;;;;;;112472;210;196104;-36
2023/09/29 05:36:11;;;;;;;13.00;11.70;;;;;;;;;;112580;210;42229;-36
2023/09/29 05:38:45;;;;;;;13.60;12.20;;;;;;;;;;112546;209;39007;-38
2023/09/29 05:41:20;;;;;;;14.10;12.70;;;;;;;;;;112581;209;39899;-35
2023/09/29 05:43:56;;;;;;;13.70;12.20;;;;;;;;;;112598;210;42626;-36
2023/09/29 05:46:32;;;;;;;15.50;12.60;;;;;;;;;;112569;209;44627;-39
2023/09/29 05:49:09;;;;;;;14.80;12.70;;;;;;;;;;112548;209;38436;-35
2023/09/29 05:51:46;;;;;;;13.90;12.50;;;;;;;;;;112570;210;39930;-37
2023/09/29 05:54:25;;;;;;;13.80;12.40;;;;;;;;;;112499;210;42883;-37
2023/09/29 05:57:02;;;;;;;14.60;12.60;;;;;;;;;;112603;209;42305;-35
2023/09/29 05:59:39;;;;;;;14.10;12.60;;;;;;;;;;112355;210;38886;-36
2023/09/29 06:02:16;;;;;;;15.00;12.60;;;;;;;;;;112574;209;39572;-38
2023/09/29 06:04:52;;;;;;;14.30;12.80;;;;;;;;;;112452;210;43160;-38
2023/09/29 06:07:27;;;;;;;14.40;12.80;;;;;;;;;;112549;210;42602;-36
2023/09/29 06:10:03;;;;;;;14.70;12.60;;;;;;;;;;112485;210;39011;-36
2023/09/29 06:12:38;;;;;;;14.10;12.70;;;;;;;;;;112478;210;39589;-35
2023/09/29 06:15:14;;;;;;;13.90;12.40;;;;;;;;;;112423;209;42986;-34
2023/09/29 06:17:50;;;;;;;13.60;12.20;;;;;;;;;;112569;210;42106;-36
2023/09/29 06:20:27;;;;;;;13.80;12.40;;;;;;;;;;112458;210;39058;-37
2023/09/29 06:23:01;;;;;;;15.40;12.40;;;;;;;;;;112528;210;39538;-37
2023/09/29 06:25:37;;;;;;;14.00;12.60;;;;;;;;;;112545;210;42935;-34
2023/09/29 06:28:12;;;;;;;13.90;12.50;;;;;;;;;;112360;210;42663;-35
2023/09/29 06:30:49;;;;;;;13.90;12.50;;;;;;;;;;112420;210;39004;-35
2023/09/29 06:33:25;;;;;;;13.60;12.00;;;;;;;;;;112574;210;39580;-35
2023/09/29 06:36:02;;;;;;;14.30;12.30;;;;;;;;;;112568;210;42800;-35
2023/09/29 06:38:40;;;;;;;13.60;12.20;;;;;;;;;;112375;210;42177;-35
2023/09/29 06:41:14;;;;;;;14.20;11.90;;;;;;;;;;112370;210;38764;-35
2023/09/29 06:43:52;;;;;;;13.50;12.20;;;;;;;;;;112538;210;39806;-36
2023/09/29 06:46:30;;;;;;;13.50;12.00;;;;;;;;;;112446;210;42594;-36
2023/09/29 06:49:12;;;;;;;13.40;12.00;;;;;;;;;;112350;210;42232;-36
2023/09/29 06:51:49;;;;;;;13.90;12.40;;;;;;;;;;112429;209;46019;-36
2023/09/29 06:54:30;;;;;;;13.80;12.00;;;;;;;;;;112321;209;175503;-36
2023/09/29 06:57:08;;;;;;;14.70;12.50;;;;;;;;;;112729;210;42964;-40
2023/09/29 06:59:43;;;;;;;13.30;11.70;;;;;;;;;;112476;209;42229;-37
2023/09/29 07:02:17;;;;;;;13.30;12.00;;;;;;;;;;112432;210;44614;-38
2023/09/29 07:04:55;;;;;;;13.80;11.70;;;;;;;;;;112537;209;40978;-38
2023/09/29 07:07:29;;;;;;;13.20;11.80;;;;;;;;;;112518;210;42845;-42
2023/09/29 07:10:04;;;;;;;13.50;12.20;;;;;;;;;;112490;210;42141;-39
2023/09/29 07:12:41;;;;;;;13.70;12.30;;;;;;;;;;112457;210;45032;-39
2023/09/29 07:15:19;;;;;;;13.60;11.70;;;;;;;;;;112575;210;39940;-37
2023/09/29 07:17:59;;;;;;;13.90;12.40;;;;;;;;;;112433;210;42935;-37
2023/09/29 07:20:38;;;;;;;13.50;12.10;;;;;;;;;;112442;210;42285;-37
2023/09/29 07:23:13;;;;;;;13.50;12.00;;;;;;;;;;112443;210;38905;-39
2023/09/29 07:25:51;;;;;;;13.50;12.10;;;;;;;;;;112433;210;39603;-38
2023/09/29 07:28:26;;;;;;;13.10;11.50;;;;;;;;;;112440;210;42990;-40
2023/09/29 07:31:03;;;;;;;13.80;11.90;;;;;;;;;;112433;210;42347;-42
2023/09/29 07:33:41;;;;;;;13.10;11.70;;;;;;;;;;112499;210;38835;-37
2023/09/29 07:36:17;;;;;;;13.20;11.90;;;;;;;;;;112493;210;39743;-41
2023/09/29 07:38:55;;;;;;;13.30;11.70;;;;;;;;;;112507;210;42817;-41
2023/09/29 07:41:31;;;;;;;13.20;11.60;;;;;;;;;;112323;210;41867;-45
2023/09/29 07:44:19;;;;;;;13.10;11.60;;;;;;;;;;112475;210;38582;-42
2023/09/29 07:46:57;;;;;;;13.30;11.90;;;;;;;;;;112490;210;39791;-43
2023/09/29 07:49:33;;;;;;;12.20;11.00;;;;;;;;;;112419;210;42567;-42
2023/09/29 07:52:13;;;;;;;14.40;12.00;;;;;;;;;;112393;210;42227;-43
2023/09/29 07:54:51;;;;;;;13.20;11.80;;;;;;;;;;112491;210;38688;-41
2023/09/29 07:57:28;;;;;;;12.80;11.50;;;;;;;;;;112531;210;39554;-44
2023/09/29 08:00:08;;;;;;;12.80;11.40;;;;;;;;;;112601;210;43143;-42
2023/09/29 08:02:44;;;;;;;12.80;11.50;;;;;;;;;;112536;209;44748;-41
2023/09/29 08:05:22;;;;;;;12.10;10.90;;;;;;;;;;112545;210;39938;-41
2023/09/29 08:07:59;;;;;;;12.70;11.40;;;;;;;;;;112520;210;39744;-42
2023/09/29 08:10:33;;;;;;;12.40;11.10;;;;;;;;;;112589;210;42665;-42
2023/09/29 08:13:11;;;;;;;12.70;11.40;;;;;;;;;;112560;209;41891;-43
2023/09/29 08:15:46;;;;;;;12.90;11.00;;;;;;;;;;112612;210;38853;-45
2023/09/29 08:18:21;;;;;;;12.80;11.00;;;;;;;;;;112610;210;39831;-42
2023/09/29 08:20:58;;;;;;;11.80;10.60;;;;;;;;;;112569;210;42985;-42
2023/09/29 08:23:36;;;;;;;12.10;10.90;;;;;;;;;;112572;209;42094;-41
2023/09/29 08:26:12;;;;;;;13.00;11.20;;;;;;;;;;112612;210;38827;-43
2023/09/29 08:28:49;;;;;;;12.30;11.10;;;;;;;;;;112621;210;39596;-42
2023/09/29 08:31:25;;;;;;;12.20;10.80;;;;;;;;;;111933;210;892121;-44
2023/09/29 08:34:07;;;;;;;12.00;10.80;;;;;;;;;;112584;209;42136;-44
2023/09/29 08:36:44;;;;;;;11.40;10.20;;;;;;;;;;112634;210;38895;-44
2023/09/29 08:39:23;;;;;;;11.80;10.40;;;;;;;;;;112655;210;39738;-44
2023/09/29 08:42:05;;;;;;;12.60;10.50;;;;;;;;;;112595;209;43078;-41
2023/09/29 08:44:43;;;;;;;12.90;10.50;;;;;;;;;;112576;210;48621;-44
2023/09/29 08:47:21;;;;;;;10.90;9.70;;;;;;;;;;112600;210;38886;-41
2023/09/29 08:49:58;;;;;;;12.40;10.70;;;;;;;;;;111922;210;893348;-41
2023/09/29 08:52:33;;;;;;;11.90;10.40;;;;;;;;;;112570;209;42818;-41
2023/09/29 08:55:16;;;;;;;11.60;10.40;;;;;;;;;;112608;210;42239;-41
2023/09/29 08:57:51;;;;;;;11.80;10.50;;;;;;;;;;112592;210;38689;-41
2023/09/29 09:00:30;;;;;;;11.10;9.70;;;;;;;;;;112624;210;39742;-42
2023/09/29 09:03:06;;;;;;;11.50;9.80;;;;;;;;;;112582;209;42960;-41
2023/09/29 09:05:40;;;;;;;11.00;9.80;;;;;;;;;;112532;210;42114;-45
2023/09/29 09:08:18;;;;;;;10.90;9.60;;;;;;;;;;112563;210;39106;-43
2023/09/29 09:11:00;;;;;;;11.40;9.80;;;;;;;;;;112428;210;39633;-41
2023/09/29 09:13:35;;;;;;;10.50;9.40;;;;;;;;;;112507;209;43153;-41
2023/09/29 09:16:11;;;;;;;10.80;9.50;;;;;;;;;;112573;210;42270;-41
2023/09/29 09:18:47;;;;;;;10.50;9.10;;;;;;;;;;112573;210;38493;-41
2023/09/29 09:21:31;;;;;;;10.90;9.30;;;;;;;;;;112552;210;39568;-42
2023/09/29 09:24:18;;;;;;;11.50;9.40;;;;;;;;;;111858;209;892899;-42
2023/09/29 09:27:03;;;;;;;10.10;9.10;;;;;;;;;;112531;210;41794;-41
2023/09/29 09:29:45;;;;;;;10.90;9.20;;;;;;;;;;112595;209;38794;-41
2023/09/29 09:32:29;;;;;;;11.40;9.40;;;;;;;;;;112535;210;40867;-41
2023/09/29 09:35:10;;;;;;;11.30;9.10;;;;;;;;;;112516;209;42896;-42
2023/09/29 09:37:46;;;;;;;9.90;8.80;;;;;;;;;;112584;210;42216;-42
2023/09/29 09:40:23;;;;;;;12.00;9.20;;;;;;;;;;112563;210;38833;-42
2023/09/29 09:43:03;;;;;;;10.10;8.10;;;;;;;;;;112563;209;39927;-42
2023/09/29 09:45:42;;;;;;;9.00;8.10;;;;;;;;;;112503;209;42810;-44
2023/09/29 09:48:20;;;;;;;9.90;8.20;;;;;;;;;;112575;210;42002;-41
2023/09/29 09:50:58;;;;;;;9.10;8.10;;;;;;;;;;112621;209;38908;-45
2023/09/29 09:53:38;;;;;;;9.70;8.70;;;;;;;;;;112565;209;39710;-44
2023/09/29 09:56:26;;;;;;;9.10;8.10;;;;;;;;;;112630;209;49443;-46
2023/09/29 09:59:05;;;;;;;9.20;7.80;;;;;;;;;;112648;209;42304;-45
2023/09/29 10:01:40;;;;;;;9.20;7.80;;;;;;;;;;112630;209;38547;-44
2023/09/29 10:04:17;;;;;;;9.00;8.10;;;;;;;;;;112610;209;39346;-43
2023/09/29 10:06:56;;;;;;;9.30;7.60;;;;;;;;;;112645;209;42949;-46
2023/09/29 10:09:43;;;;;;;10.50;7.60;;;;;;;;;;112611;209;42068;-42
2023/09/29 10:12:31;;;;;;;9.10;7.80;;;;;;;;;;112623;209;38907;-41
2023/09/29 10:15:17;;;;;;;9.20;7.80;;;;;;;;;;112586;209;39566;-41
2023/09/29 10:17:52;;;;;;;9.00;7.40;;;;;;;;;;112593;209;42815;-42
2023/09/29 10:20:35;;;;;;;9.00;7.50;;;;;;;;;;112593;209;41975;-42
2023/09/29 10:23:18;;;;;;;8.40;7.50;;;;;;;;;;112617;209;39110;-42
2023/09/29 10:26:02;;;;;;;8.20;7.20;;;;;;;;;;112591;209;39665;-41
2023/09/29 10:28:39;;;;;;;8.20;7.30;;;;;;;;;;112587;209;42821;-45
2023/09/29 10:31:27;;;;;;;8.90;7.30;;;;;;;;;;112603;209;42311;-44
2023/09/29 10:34:05;;;;;;;8.30;7.20;;;;;;;;;;112605;209;38714;-44
2023/09/29 10:36:40;;;;;;;9.00;7.40;;;;;;;;;;112637;209;39588;-43
2023/09/29 10:39:30;;;;;;;8.20;6.50;;;;;;;;;;112654;209;43138;-43
2023/09/29 10:42:12;;;;;;;7.90;6.50;;;;;;;;;;112646;209;42224;-43
2023/09/29 10:44:52;;;;;;;8.40;6.90;;;;;;;;;;112586;209;38714;-42
2023/09/29 10:47:37;;;;;;;7.70;6.40;;;;;;;;;;112495;209;140140;-41
2023/09/29 10:50:16;;;;;;;7.50;6.30;;;;;;;;;;112623;209;43379;-44
2023/09/29 10:52:51;;;;;;;8.00;6.50;;;;;;;;;;112616;209;41823;-44
2023/09/29 10:55:27;;;;;;;8.50;6.70;;;;;;;;;;112557;209;38751;-44
2023/09/29 10:58:04;;;;;;;8.40;6.50;;;;;;;;;;112611;210;39607;-42
2023/09/29 11:00:47;;;;;;;8.40;6.60;;;;;;;;;;112612;210;43223;-43
2023/09/29 11:03:30;;;;;;;9.10;6.70;;;;;;;;;;112623;209;42164;-44
2023/09/29 11:06:09;;;;;;;8.60;6.60;;;;;;;;;;112566;209;38681;-45
2023/09/29 11:08:53;;;;;;;9.00;6.20;;;;;;;;;;112573;209;39564;-43
2023/09/29 11:11:33;;;;;;;8.30;6.30;;;;;;;;;;112622;209;42829;-43
2023/09/29 11:14:09;;;;;;;7.10;5.90;;;;;;;;;;112436;210;175501;-43
2023/09/29 11:16:43;;;;;;;6.60;5.70;;;;;;;;;;112541;209;39965;-44
2023/09/29 11:19:17;;;;;;;7.20;5.70;;;;;;;;;;112576;210;41223;-44
2023/09/29 11:21:54;;;;;;;7.80;5.80;;;;;;;;;;112563;210;42784;-44
2023/09/29 11:24:42;;;;;;;7.30;5.80;;;;;;;;;;112554;210;43578;-44
2023/09/29 11:27:16;;;;;;;7.00;5.90;;;;;;;;;;112469;209;40064;-44
2023/09/29 11:29:54;;;;;;;7.30;5.90;;;;;;;;;;112578;210;40821;-44
2023/09/29 11:32:29;;;;;;;7.40;5.90;;;;;;;;;;112555;210;42979;-44
2023/09/29 11:35:13;;;;;;;7.70;5.50;;;;;;;;;;112555;210;43293;-44
2023/09/29 11:37:52;;;;;;;7.30;5.40;;;;;;;;;;112487;209;38615;-44
2023/09/29 11:40:27;;;;;;;8.30;5.70;;;;;;;;;;112571;210;40886;-44
2023/09/29 11:43:01;;;;;;;7.20;5.60;;;;;;;;;;112557;210;43189;-44
2023/09/29 11:45:39;;;;;;;7.40;5.50;;;;;;;;;;112574;210;43324;-44
2023/09/29 11:48:14;;;;;;;6.30;5.00;;;;;;;;;;112547;210;44345;-44
2023/09/29 11:50:49;;;;;;;8.00;5.90;;;;;;;;;;112551;210;41086;-44
2023/09/29 11:53:23;;;;;;;6.90;5.00;;;;;;;;;;112526;210;42786;-44
2023/09/29 11:56:03;;;;;;;6.20;5.10;;;;;;;;;;112551;210;41742;-44
2023/09/29 11:58:38;;;;;;;6.80;5.30;;;;;;;;;;112531;209;45702;-44
2023/09/29 12:01:12;;;;;;;7.00;5.20;;;;;;;;;;112587;210;40928;-44
2023/09/29 12:03:48;;;;;;;6.60;5.20;;;;;;;;;;112602;210;42533;-48
2023/09/29 12:06:25;;;;;;;7.50;5.30;;;;;;;;;;112611;210;43470;-48
2023/09/29 12:09:00;;;;;;;7.70;5.30;;;;;;;;;;112534;210;44417;-44
2023/09/29 12:11:40;;;;;;;6.80;5.20;;;;;;;;;;112377;210;40144;-44
2023/09/29 12:14:16;;;;;;;8.10;5.30;;;;;;;;;;112581;210;42718;-44
2023/09/29 12:16:53;;;;;;;6.90;5.20;;;;;;;;;;112580;209;43427;-44
2023/09/29 12:19:30;;;;;;;5.70;4.90;;;;;;;;;;112600;210;44634;-44
2023/09/29 12:22:06;;;;;;;6.90;5.00;;;;;;;;;;112447;210;175469;-44
2023/09/29 12:24:44;;;;;;;7.60;5.40;;;;;;;;;;112579;210;44103;-44
2023/09/29 12:27:23;;;;;;;7.30;5.20;;;;;;;;;;112550;209;43559;-44
2023/09/29 12:30:00;;;;;;;5.70;4.80;;;;;;;;;;112587;210;39999;-44
2023/09/29 12:32:34;;;;;;;6.80;5.20;;;;;;;;;;112598;210;39642;-44
2023/09/29 12:35:15;;;;;;;7.30;5.30;;;;;;;;;;112565;210;44080;-44
2023/09/29 12:37:51;;;;;;;6.70;5.10;;;;;;;;;;112548;209;42200;-44
2023/09/29 12:40:25;;;;;;;6.20;5.10;;;;;;;;;;112583;210;38730;-44
2023/09/29 12:43:00;;;;;;;7.00;5.00;;;;;;;;;;112575;210;39873;-44
2023/09/29 12:45:35;;;;;;;7.20;5.40;;;;;;;;;;112573;210;44174;-43
2023/09/29 12:48:11;;;;;;;7.20;5.50;;;;;;;;;;112532;209;41988;-44
2023/09/29 12:50:46;;;;;;;6.80;5.10;;;;;;;;;;112594;210;38698;-44
2023/09/29 12:53:27;;;;;;;7.40;5.40;;;;;;;;;;112596;210;39885;-44
2023/09/29 12:56:03;;;;;;;6.70;4.80;;;;;;;;;;112549;210;44397;-44
2023/09/29 12:58:38;;;;;;;6.60;4.90;;;;;;;;;;112561;209;43539;-44
2023/09/29 13:01:16;;;;;;;6.10;4.90;;;;;;;;;;112580;210;38899;-44
2023/09/29 13:03:54;;;;;;;7.10;5.50;;;;;;;;;;112593;210;39562;-42
2023/09/29 13:06:32;;;;;;;7.50;5.20;;;;;;;;;;112595;210;44520;-43
2023/09/29 13:09:09;;;;;;;6.90;5.40;;;;;;;;;;112557;209;43472;-39
2023/09/29 13:11:50;;;;;;;6.90;5.40;;;;;;;;;;112598;210;40154;-42
2023/09/29 13:14:25;;;;;;;7.60;5.60;;;;;;;;;;112577;210;39972;-44
2023/09/29 13:17:02;;;;;;;7.50;5.20;;;;;;;;;;112406;210;175427;-45
2023/09/29 13:19:39;;;;;;;7.20;5.20;;;;;;;;;;112561;209;42024;-44
2023/09/29 13:22:17;;;;;;;7.40;5.30;;;;;;;;;;112562;209;38434;-44
2023/09/29 13:24:52;;;;;;;6.70;5.00;;;;;;;;;;112577;210;39339;-43
2023/09/29 13:27:27;;;;;;;6.50;5.40;;;;;;;;;;112532;210;42682;-44
2023/09/29 13:30:02;;;;;;;7.20;5.20;;;;;;;;;;112525;209;43434;-44
2023/09/29 13:32:40;;;;;;;7.40;5.30;;;;;;;;;;112540;210;39967;-44
2023/09/29 13:35:16;;;;;;;6.60;4.80;;;;;;;;;;112589;210;39807;-42
2023/09/29 13:37:55;;;;;;;6.50;5.40;;;;;;;;;;112587;210;42818;-42
2023/09/29 13:40:33;;;;;;;7.30;5.40;;;;;;;;;;112524;209;42025;-42
2023/09/29 13:43:09;;;;;;;7.10;5.20;;;;;;;;;;112584;210;38691;-42
2023/09/29 13:45:43;;;;;;;6.80;5.00;;;;;;;;;;112580;210;39612;-44
2023/09/29 13:48:21;;;;;;;6.00;5.00;;;;;;;;;;112541;210;43182;-43
2023/09/29 13:50:58;;;;;;;6.80;4.80;;;;;;;;;;112404;209;42176;-38
2023/09/29 13:53:32;;;;;;;6.70;4.90;;;;;;;;;;112572;210;38765;-38
2023/09/29 13:56:14;;;;;;;6.80;4.80;;;;;;;;;;112581;210;39588;-40
2023/09/29 13:58:50;;;;;;;6.50;4.80;;;;;;;;;;112583;210;43071;-41
2023/09/29 14:01:27;;;;;;;8.20;5.10;;;;;;;;;;112524;210;48080;-41
2023/09/29 14:04:01;;;;;;;5.80;4.70;;;;;;;;;;112585;209;38707;-38
2023/09/29 14:06:39;;;;;;;7.70;5.20;;;;;;;;;;112539;210;40073;-39
2023/09/29 14:09:14;;;;;;;5.70;4.50;;;;;;;;;;112566;209;43182;-40
2023/09/29 14:11:56;;;;;;;7.20;5.10;;;;;;;;;;112608;210;48220;-36
2023/09/29 14:14:30;;;;;;;6.20;5.20;;;;;;;;;;112616;210;39084;-37
2023/09/29 14:17:06;;;;;;;7.60;5.10;;;;;;;;;;112595;210;39946;-38
2023/09/29 14:19:40;;;;;;;6.30;4.70;;;;;;;;;;112572;209;42994;-38
2023/09/29 14:22:18;;;;;;;6.30;4.80;;;;;;;;;;112549;210;48658;-37
2023/09/29 14:24:53;;;;;;;6.20;5.20;;;;;;;;;;112617;210;39010;-37
2023/09/29 14:27:31;;;;;;;6.60;4.80;;;;;;;;;;112588;210;39609;-36
2023/09/29 14:30:09;;;;;;;6.60;5.00;;;;;;;;;;112551;209;44236;-36
2023/09/29 14:32:46;;;;;;;6.70;4.90;;;;;;;;;;112603;210;43375;-36
2023/09/29 14:35:22;;;;;;;7.10;4.70;;;;;;;;;;112579;210;38723;-36
2023/09/29 14:38:12;;;;;;;6.10;4.50;;;;;;;;;;112583;210;39887;-36
2023/09/29 14:40:47;;;;;;;6.50;4.70;;;;;;;;;;112522;209;44183;-36
2023/09/29 14:43:28;;;;;;;7.10;4.70;;;;;;;;;;112556;209;42027;-36
2023/09/29 14:46:10;;;;;;;6.00;4.70;;;;;;;;;;112601;210;38851;-36
2023/09/29 14:48:44;;;;;;;6.60;4.80;;;;;;;;;;112577;209;40795;-39
2023/09/29 14:51:18;;;;;;;6.30;4.70;;;;;;;;;;112629;209;42584;-39
2023/09/29 14:53:56;;;;;;;6.20;4.80;;;;;;;;;;112599;209;43348;-38
2023/09/29 14:56:30;;;;;;;6.10;5.00;;;;;;;;;;112572;210;39415;-38
2023/09/29 14:59:08;;;;;;;6.50;4.90;;;;;;;;;;112574;210;39591;-38
2023/09/29 15:01:42;;;;;;;7.00;5.20;;;;;;;;;;112494;209;44177;-38
2023/09/29 15:04:17;;;;;;;6.30;4.80;;;;;;;;;;111872;210;892685;-38
2023/09/29 15:06:52;;;;;;;6.50;4.80;;;;;;;;;;112516;210;39159;-38
2023/09/29 15:09:28;;;;;;;6.50;4.80;;;;;;;;;;112492;209;39927;-38
2023/09/29 15:12:07;;;;;;;5.90;4.60;;;;;;;;;;112502;209;42534;-38
2023/09/29 15:14:42;;;;;;;6.30;4.70;;;;;;;;;;112500;210;43160;-38
2023/09/29 15:17:18;;;;;;;6.10;4.80;;;;;;;;;;112480;210;38946;-38
2023/09/29 15:19:53;;;;;;;7.30;4.80;;;;;;;;;;112543;210;39332;-38
2023/09/29 15:22:28;;;;;;;6.20;4.70;;;;;;;;;;112535;209;43027;-38
2023/09/29 15:25:04;;;;;;;5.80;4.60;;;;;;;;;;112564;210;42299;-38
2023/09/29 15:27:44;;;;;;;7.00;4.80;;;;;;;;;;112581;210;40120;-38